Time;durP1;ratioP1;P1;durP2;ratioP2;P2;SDS_P1;SDS_P2;PMS_P1;PMS_P2;Temp;Humidity;BMP_temperature;BMP_pressure;BME280_temperature;BME280_humidity;BME280_pressure;Samples;Min_cycle;Max_cycle;Signal;HPM_P1;HPM_P2
2022/12/16 00:01:42;0.00;0.00;0.62;0.00;0.00;0.62;2.27;1.90;;;20.80;22.20;;;;;;2268287;61;20386;-67
2022/12/16 00:04:27;0.00;0.00;0.62;0.00;0.00;0.62;2.60;1.90;;;20.80;22.20;;;;;;2268521;61;20411;-65
2022/12/16 00:07:11;0.00;0.00;0.62;0.00;0.00;0.62;2.23;1.73;;;20.80;22.20;;;;;;2267038;61;20467;-65
2022/12/16 00:09:56;0.00;0.00;0.62;0.00;0.00;0.62;2.17;1.40;;;20.80;22.20;;;;;;2268345;61;20343;-68
2022/12/16 00:12:40;0.00;0.00;0.62;0.00;0.00;0.62;2.73;1.67;;;20.70;22.20;;;;;;2268289;61;20375;-64
2022/12/16 00:15:26;0.00;0.00;0.62;0.00;0.00;0.62;2.97;2.40;;;20.70;22.20;;;;;;2267497;61;20406;-66
2022/12/16 00:18:11;0.00;0.00;0.62;0.00;0.00;0.62;2.23;1.57;;;20.70;22.20;;;;;;2268442;61;20360;-67
2022/12/16 00:20:56;0.00;0.00;0.62;0.00;0.00;0.62;2.00;1.60;;;20.70;22.20;;;;;;2267778;61;20762;-67
2022/12/16 00:23:41;0.00;0.00;0.62;0.00;0.00;0.62;2.50;1.67;;;20.80;22.30;;;;;;2423654;53;20393;-67
2022/12/16 00:26:28;0.00;0.00;0.62;0.00;0.00;0.62;2.50;1.73;;;20.70;22.20;;;;;;2268422;61;20354;-67
2022/12/16 00:29:13;0.00;0.00;0.62;0.00;0.00;0.62;1.97;1.57;;;20.70;22.20;;;;;;2267093;61;20948;-65
2022/12/16 00:32:01;0.00;0.00;0.62;0.00;0.00;0.62;2.53;1.53;;;20.70;22.20;;;;;;2268148;61;20434;-65
2022/12/16 00:34:46;0.00;0.00;0.62;0.00;0.00;0.62;2.47;1.80;;;20.70;22.20;;;;;;2265190;61;20394;-64
2022/12/16 00:37:31;0.00;0.00;0.62;0.00;0.00;0.62;2.30;1.60;;;20.70;22.20;;;;;;2267116;61;20359;-68
2022/12/16 00:40:16;0.00;0.00;0.62;0.00;0.00;0.62;2.47;1.90;;;20.70;22.30;;;;;;2268376;61;20418;-66
2022/12/16 00:43:01;0.00;0.00;0.62;0.00;0.00;0.62;2.37;1.80;;;20.70;22.30;;;;;;2267701;61;20375;-66
2022/12/16 00:45:46;0.00;0.00;0.62;0.00;0.00;0.62;1.90;1.53;;;20.70;22.30;;;;;;2268041;61;20359;-66
2022/12/16 00:48:32;0.00;0.00;0.62;0.00;0.00;0.62;2.13;1.40;;;20.70;22.30;;;;;;2268915;61;20391;-64
2022/12/16 00:51:17;0.00;0.00;0.62;0.00;0.00;0.62;2.27;1.50;;;20.60;22.20;;;;;;2264438;61;20370;-64
2022/12/16 00:54:01;0.00;0.00;0.62;0.00;0.00;0.62;2.50;1.60;;;20.60;22.20;;;;;;2268729;61;20965;-67
2022/12/16 00:56:45;0.00;0.00;0.62;0.00;0.00;0.62;2.00;1.57;;;20.60;22.20;;;;;;2268968;61;20886;-66
2022/12/16 00:59:30;0.00;0.00;0.62;0.00;0.00;0.62;2.80;1.77;;;20.60;22.30;;;;;;2267672;61;20390;-63
2022/12/16 01:02:15;0.00;0.00;0.62;0.00;0.00;0.62;2.63;2.00;;;20.60;22.30;;;;;;2268911;61;20474;-68
2022/12/16 01:05:01;0.00;0.00;0.62;0.00;0.00;0.62;2.60;1.90;;;20.60;22.30;;;;;;2265349;61;20362;-68
2022/12/16 01:07:46;0.00;0.00;0.62;0.00;0.00;0.62;2.73;2.10;;;20.60;22.20;;;;;;2268241;61;20886;-67
2022/12/16 01:10:31;0.00;0.00;0.62;0.00;0.00;0.62;2.40;1.90;;;20.60;22.20;;;;;;2268834;61;20382;-71
2022/12/16 01:13:16;0.00;0.00;0.62;0.00;0.00;0.62;2.97;2.20;;;20.60;22.20;;;;;;2267485;61;20426;-69
2022/12/16 01:16:01;0.00;0.00;0.62;0.00;0.00;0.62;2.53;1.83;;;20.60;22.30;;;;;;2268723;61;20362;-67
2022/12/16 01:18:46;0.00;0.00;0.62;0.00;0.00;0.62;3.33;2.13;;;20.60;22.40;;;;;;2268943;61;20363;-69
2022/12/16 01:21:32;0.00;0.00;0.62;0.00;0.00;0.62;3.00;2.17;;;20.60;22.40;;;;;;2267640;61;20382;-69
2022/12/16 01:24:16;0.00;0.00;0.62;0.00;0.00;0.62;2.33;1.87;;;20.60;22.30;;;;;;2268629;61;20922;-71
2022/12/16 01:27:01;0.00;0.00;0.62;0.00;0.00;0.62;2.57;2.10;;;20.60;22.30;;;;;;2268511;61;20374;-67
2022/12/16 01:29:46;0.00;0.00;0.62;0.00;0.00;0.62;1.90;1.70;;;20.60;22.40;;;;;;2268449;61;20344;-67
2022/12/16 01:32:30;0.00;0.00;0.62;0.00;0.00;0.62;2.30;1.70;;;20.60;22.40;;;;;;2268721;61;20398;-69
2022/12/16 01:35:16;0.00;0.00;0.62;0.00;0.00;0.62;3.10;2.30;;;20.60;22.90;;;;;;2268109;61;20413;-67
2022/12/16 01:38:02;0.00;0.00;0.62;0.00;0.00;0.62;3.03;2.30;;;20.60;22.30;;;;;;2268881;61;20363;-70
2022/12/16 01:40:46;0.00;0.00;0.62;0.00;0.00;0.62;2.47;1.70;;;20.60;22.40;;;;;;2269101;61;20367;-69
2022/12/16 01:43:34;0.00;0.00;0.62;0.00;0.00;0.62;3.20;2.40;;;20.60;22.40;;;;;;2267491;61;20398;-69
2022/12/16 01:46:23;0.00;0.00;0.62;0.00;0.00;0.62;4.60;1.80;;;20.50;22.40;;;;;;2268846;61;20371;-67
2022/12/16 01:49:16;0.00;0.00;0.62;0.00;0.00;0.62;4.43;1.90;;;20.50;22.40;;;;;;2268707;61;20930;-71
2022/12/16 01:52:06;0.00;0.00;0.62;0.00;0.00;0.62;3.90;2.00;;;20.50;22.40;;;;;;2268183;61;20751;-71
2022/12/16 01:54:58;0.00;0.00;0.62;0.00;0.00;0.62;3.13;1.80;;;20.50;22.40;;;;;;2268713;61;20876;-67
2022/12/16 01:57:49;0.00;0.00;0.62;0.00;0.00;0.62;4.30;2.20;;;20.50;22.40;;;;;;2267459;61;20389;-70
2022/12/16 02:00:34;0.00;0.00;0.62;0.00;0.00;0.62;3.20;2.07;;;20.50;22.30;;;;;;2265323;61;20435;-70
2022/12/16 02:03:19;0.00;0.00;0.62;0.00;0.00;0.62;4.03;1.83;;;20.50;22.40;;;;;;2268597;61;20379;-70
2022/12/16 02:06:06;0.00;0.00;0.62;0.00;0.00;0.62;3.33;2.20;;;20.50;22.50;;;;;;2267761;61;20579;-70
2022/12/16 02:08:59;0.00;0.00;0.62;0.00;0.00;0.62;3.33;2.30;;;20.50;22.50;;;;;;2268561;61;20969;-69
2022/12/16 02:12:18;0.00;0.00;0.62;0.00;0.00;0.62;3.60;2.07;;;20.50;22.50;;;;;;2268272;61;20462;-70
2022/12/16 02:15:19;0.00;0.00;0.62;0.00;0.00;0.62;3.20;1.83;;;20.50;22.50;;;;;;2268722;61;20403;-69
2022/12/16 02:18:14;0.00;0.00;0.62;0.00;0.00;0.62;2.93;2.00;;;20.50;22.50;;;;;;2268564;61;20359;-69
2022/12/16 02:21:16;0.00;0.00;0.62;0.00;0.00;0.62;3.43;1.63;;;20.40;22.40;;;;;;2267602;61;20417;-70
2022/12/16 02:24:37;0.00;0.00;0.62;0.00;0.00;0.62;2.27;1.40;;;20.50;22.50;;;;;;2267513;61;20416;-70
2022/12/16 02:27:59;0.00;0.00;0.62;0.00;0.00;0.62;2.67;1.67;;;20.40;22.40;;;;;;2267577;61;20777;-69
2022/12/16 02:31:13;0.00;0.00;0.62;0.00;0.00;0.62;2.30;1.77;;;20.40;22.40;;;;;;2268513;61;20387;-70
2022/12/16 02:34:21;0.00;0.00;0.62;0.00;0.00;0.62;2.13;1.60;;;20.40;22.40;;;;;;2264997;61;20506;-70
2022/12/16 02:37:19;0.00;0.00;0.62;0.00;0.00;0.62;2.03;1.77;;;20.40;22.40;;;;;;2268602;61;20912;-71
2022/12/16 02:40:15;0.00;0.00;0.62;0.00;0.00;0.62;3.13;2.37;;;20.40;22.40;;;;;;2268706;61;20914;-70
2022/12/16 02:43:07;0.00;0.00;0.62;0.00;0.00;0.62;2.37;2.00;;;20.40;22.40;;;;;;2267302;61;20386;-71
2022/12/16 02:45:53;0.00;0.00;0.62;0.00;0.00;0.62;2.23;1.63;;;20.40;22.40;;;;;;2268836;61;20738;-70
2022/12/16 02:48:38;0.00;0.00;0.62;0.00;0.00;0.62;3.10;1.83;;;20.40;22.40;;;;;;2268152;61;20429;-71
2022/12/16 02:51:25;0.00;0.00;0.62;0.00;0.00;0.62;2.43;1.73;;;20.40;22.40;;;;;;2268014;61;20882;-71
2022/12/16 02:54:11;0.00;0.00;0.62;0.00;0.00;0.62;2.10;1.50;;;20.40;22.30;;;;;;2268442;61;20395;-70
2022/12/16 02:57:12;0.00;0.00;0.62;0.00;0.00;0.62;2.73;1.90;;;20.40;22.30;;;;;;2267417;61;20425;-70
2022/12/16 03:00:04;0.00;0.00;0.62;0.00;0.00;0.62;2.30;1.57;;;20.40;22.40;;;;;;2268644;61;20440;-71
2022/12/16 03:02:56;0.00;0.00;0.62;0.00;0.00;0.62;2.20;1.50;;;20.40;22.30;;;;;;2268376;61;20769;-69
2022/12/16 03:05:49;0.00;0.00;0.62;0.00;0.00;0.62;2.27;1.67;;;20.40;22.30;;;;;;2267655;61;20482;-70
2022/12/16 03:08:39;0.00;0.00;0.62;0.00;0.00;0.62;2.67;2.00;;;20.40;22.40;;;;;;2268291;61;20823;-71
2022/12/16 03:11:27;0.00;0.00;0.62;0.00;0.00;0.62;2.17;1.60;;;20.40;22.40;;;;;;2267376;61;20414;-71
2022/12/16 03:14:17;0.00;0.00;0.62;0.00;0.00;0.62;2.83;1.80;;;20.30;22.30;;;;;;2268451;61;20428;-70
2022/12/16 03:17:03;0.00;0.00;0.62;0.00;0.00;0.62;2.03;1.63;;;20.30;22.30;;;;;;2268368;61;20359;-71
2022/12/16 03:20:00;0.00;0.00;0.62;0.00;0.00;0.62;1.83;1.33;;;20.30;22.40;;;;;;2264247;61;20413;-70
2022/12/16 03:22:49;0.00;0.00;0.62;0.00;0.00;0.62;2.10;1.30;;;20.30;22.40;;;;;;2268190;61;20402;-71
2022/12/16 03:25:37;0.00;0.00;0.62;0.00;0.00;0.62;2.60;1.63;;;20.30;22.30;;;;;;2268072;61;20414;-70
2022/12/16 03:28:34;0.00;0.00;0.62;0.00;0.00;0.62;2.47;1.67;;;20.30;22.30;;;;;;2267866;61;20376;-70
2022/12/16 03:31:32;0.00;0.00;0.62;0.00;0.00;0.62;2.83;1.70;;;20.30;22.40;;;;;;2268643;61;20409;-70
2022/12/16 03:34:29;0.00;0.00;0.62;0.00;0.00;0.62;2.30;1.80;;;20.30;22.30;;;;;;2267291;61;20379;-70
2022/12/16 03:37:15;0.00;0.00;0.62;0.00;0.00;0.62;4.60;1.60;;;20.30;22.30;;;;;;2268707;61;20447;-70
2022/12/16 03:40:04;0.00;0.00;0.62;0.00;0.00;0.62;2.00;1.70;;;20.30;22.30;;;;;;2268292;61;20411;-70
2022/12/16 03:42:51;0.00;0.00;0.62;0.00;0.00;0.62;1.90;1.40;;;20.30;22.30;;;;;;2267468;61;20405;-70
2022/12/16 03:45:38;0.00;0.00;0.62;0.00;0.00;0.62;2.10;1.47;;;20.30;22.30;;;;;;2268263;61;20359;-70
2022/12/16 03:48:25;0.00;0.00;0.62;0.00;0.00;0.62;2.43;1.60;;;20.30;22.30;;;;;;2267409;61;20391;-69
2022/12/16 03:51:10;0.00;0.00;0.62;0.00;0.00;0.62;2.47;1.70;;;20.30;22.30;;;;;;2268422;61;20382;-70
2022/12/16 03:53:56;0.00;0.00;0.62;0.00;0.00;0.62;2.17;1.70;;;20.20;22.20;;;;;;2268281;61;20387;-70
2022/12/16 03:56:41;0.00;0.00;0.62;0.00;0.00;0.62;2.57;1.30;;;20.30;22.30;;;;;;2267018;61;20410;-71
2022/12/16 03:59:26;0.00;0.00;0.62;0.00;0.00;0.62;1.80;1.60;;;20.20;22.20;;;;;;2268425;61;20382;-70
2022/12/16 04:02:11;0.00;0.00;0.62;0.00;0.00;0.62;2.27;1.70;;;20.20;22.20;;;;;;2268377;61;20363;-69
2022/12/16 04:04:55;0.00;0.00;0.62;0.00;0.00;0.62;2.57;1.70;;;20.20;22.20;;;;;;2267436;61;20433;-69
2022/12/16 04:07:40;0.00;0.00;0.62;0.00;0.00;0.62;1.70;1.20;;;20.20;22.30;;;;;;2268319;61;20370;-69
2022/12/16 04:25:48;0.00;0.00;0.62;0.00;0.00;0.62;1.90;1.37;;;20.10;22.20;;;;;;2268305;61;20467;-69
2022/12/16 04:28:33;0.00;0.00;0.62;0.00;0.00;0.62;2.30;1.63;;;20.10;22.30;;;;;;2269568;61;20394;-69
2022/12/16 04:31:17;0.00;0.00;0.62;0.00;0.00;0.62;2.53;1.80;;;20.10;22.30;;;;;;2269606;61;20386;-70
